sensor_id;sensor_type;location;lat;lon;timestamp;temperature;humidity
75217;HTU21D;63800;51.972;5.682;2023-03-23T00:00:44;11.39;106.30
75217;HTU21D;63800;51.972;5.682;2023-03-23T00:03:09;11.42;107.05
75217;HTU21D;63800;51.972;5.682;2023-03-23T00:05:35;11.34;106.24
75217;HTU21D;63800;51.972;5.682;2023-03-23T00:08:02;11.39;105.73
75217;HTU21D;63800;51.972;5.682;2023-03-23T00:10:28;11.43;105.77
75217;HTU21D;63800;51.972;5.682;2023-03-23T00:12:58;11.41;105.49
75217;HTU21D;63800;51.972;5.682;2023-03-23T00:15:28;11.44;105.18
75217;HTU21D;63800;51.972;5.682;2023-03-23T00:17:59;11.42;105.45
75217;HTU21D;63800;51.972;5.682;2023-03-23T00:20:31;11.43;105.58
75217;HTU21D;63800;51.972;5.682;2023-03-23T00:23:06;11.44;105.27
75217;HTU21D;63800;51.972;5.682;2023-03-23T00:25:32;11.47;104.71
75217;HTU21D;63800;51.972;5.682;2023-03-23T00:27:57;11.49;104.31
75217;HTU21D;63800;51.972;5.682;2023-03-23T00:30:23;11.44;104.32
75217;HTU21D;63800;51.972;5.682;2023-03-23T00:32:48;11.55;104.03
75217;HTU21D;63800;51.972;5.682;2023-03-23T00:35:16;11.53;103.57
75217;HTU21D;63800;51.972;5.682;2023-03-23T00:37:42;11.52;103.95
75217;HTU21D;63800;51.972;5.682;2023-03-23T00:40:09;11.45;105.00
75217;HTU21D;63800;51.972;5.682;2023-03-23T00:42:35;11.47;104.31
75217;HTU21D;63800;51.972;5.682;2023-03-23T00:45:03;11.43;104.73
75217;HTU21D;63800;51.972;5.682;2023-03-23T00:47:38;11.47;104.93
75217;HTU21D;63800;51.972;5.682;2023-03-23T00:50:06;11.42;106.80
75217;HTU21D;63800;51.972;5.682;2023-03-23T00:52:31;11.43;107.16
75217;HTU21D;63800;51.972;5.682;2023-03-23T00:54:57;11.32;108.86
75217;HTU21D;63800;51.972;5.682;2023-03-23T00:57:22;11.20;108.09
75217;HTU21D;63800;51.972;5.682;2023-03-23T00:59:50;11.33;106.37
75217;HTU21D;63800;51.972;5.682;2023-03-23T01:02:16;11.25;109.28
75217;HTU21D;63800;51.972;5.682;2023-03-23T01:04:43;11.28;107.85
75217;HTU21D;63800;51.972;5.682;2023-03-23T01:07:12;11.22;107.97
75217;HTU21D;63800;51.972;5.682;2023-03-23T01:09:43;11.28;106.02
75217;HTU21D;63800;51.972;5.682;2023-03-23T01:12:12;11.36;105.37
75217;HTU21D;63800;51.972;5.682;2023-03-23T01:14:38;11.23;106.96
75217;HTU21D;63800;51.972;5.682;2023-03-23T01:17:03;11.27;105.55
75217;HTU21D;63800;51.972;5.682;2023-03-23T01:19:29;11.24;106.34
75217;HTU21D;63800;51.972;5.682;2023-03-23T01:21:54;11.27;104.18
75217;HTU21D;63800;51.972;5.682;2023-03-23T01:24:20;11.33;104.80
75217;HTU21D;63800;51.972;5.682;2023-03-23T01:26:45;11.31;103.90
75217;HTU21D;63800;51.972;5.682;2023-03-23T01:29:11;11.39;104.51
75217;HTU21D;63800;51.972;5.682;2023-03-23T01:31:36;11.32;104.92
75217;HTU21D;63800;51.972;5.682;2023-03-23T01:34:03;11.28;105.15
75217;HTU21D;63800;51.972;5.682;2023-03-23T01:36:29;11.33;105.03
75217;HTU21D;63800;51.972;5.682;2023-03-23T01:38:58;11.32;104.66
75217;HTU21D;63800;51.972;5.682;2023-03-23T01:41:24;11.40;105.02
75217;HTU21D;63800;51.972;5.682;2023-03-23T01:46:42;11.33;104.96
75217;HTU21D;63800;51.972;5.682;2023-03-23T01:51:56;11.33;104.28
75217;HTU21D;63800;51.972;5.682;2023-03-23T01:54:24;11.37;103.33
75217;HTU21D;63800;51.972;5.682;2023-03-23T01:56:56;11.43;103.33
75217;HTU21D;63800;51.972;5.682;2023-03-23T01:59:24;11.34;103.34
75217;HTU21D;63800;51.972;5.682;2023-03-23T02:01:53;11.34;103.58
75217;HTU21D;63800;51.972;5.682;2023-03-23T02:04:19;11.37;104.30
75217;HTU21D;63800;51.972;5.682;2023-03-23T02:06:46;11.38;104.11
75217;HTU21D;63800;51.972;5.682;2023-03-23T02:09:12;11.34;104.28
75217;HTU21D;63800;51.972;5.682;2023-03-23T02:11:44;11.37;104.40
75217;HTU21D;63800;51.972;5.682;2023-03-23T02:14:11;11.34;105.02
75217;HTU21D;63800;51.972;5.682;2023-03-23T02:16:59;11.45;104.76
75217;HTU21D;63800;51.972;5.682;2023-03-23T02:31:25;11.49;103.85
75217;HTU21D;63800;51.972;5.682;2023-03-23T02:39:08;11.61;103.76
75217;HTU21D;63800;51.972;5.682;2023-03-23T02:41:55;11.61;104.02
75217;HTU21D;63800;51.972;5.682;2023-03-23T02:44:23;11.63;103.28
75217;HTU21D;63800;51.972;5.682;2023-03-23T02:46:51;11.59;103.68
75217;HTU21D;63800;51.972;5.682;2023-03-23T02:49:17;11.61;103.23
75217;HTU21D;63800;51.972;5.682;2023-03-23T02:51:46;11.69;102.89
75217;HTU21D;63800;51.972;5.682;2023-03-23T02:54:13;11.70;102.49
75217;HTU21D;63800;51.972;5.682;2023-03-23T02:56:40;11.81;102.35
75217;HTU21D;63800;51.972;5.682;2023-03-23T02:59:06;11.71;103.06
75217;HTU21D;63800;51.972;5.682;2023-03-23T03:04:10;11.72;101.98
75217;HTU21D;63800;51.972;5.682;2023-03-23T03:12:15;11.84;100.43
75217;HTU21D;63800;51.972;5.682;2023-03-23T03:17:31;11.81;99.84
75217;HTU21D;63800;51.972;5.682;2023-03-23T03:19:59;11.88;99.64
75217;HTU21D;63800;51.972;5.682;2023-03-23T03:22:32;11.85;99.79
75217;HTU21D;63800;51.972;5.682;2023-03-23T03:25:00;11.83;99.51
75217;HTU21D;63800;51.972;5.682;2023-03-23T03:27:25;11.84;99.72
75217;HTU21D;63800;51.972;5.682;2023-03-23T03:29:56;11.78;99.60
75217;HTU21D;63800;51.972;5.682;2023-03-23T03:32:28;11.76;99.28
75217;HTU21D;63800;51.972;5.682;2023-03-23T03:34:59;11.92;99.21
75217;HTU21D;63800;51.972;5.682;2023-03-23T03:37:24;11.85;99.26
75217;HTU21D;63800;51.972;5.682;2023-03-23T03:39:50;11.87;99.27
75217;HTU21D;63800;51.972;5.682;2023-03-23T03:42:16;11.86;98.20
75217;HTU21D;63800;51.972;5.682;2023-03-23T03:44:41;11.90;98.72
75217;HTU21D;63800;51.972;5.682;2023-03-23T03:47:07;11.87;99.06
75217;HTU21D;63800;51.972;5.682;2023-03-23T03:49:32;11.88;98.80
75217;HTU21D;63800;51.972;5.682;2023-03-23T03:51:58;11.87;98.79
75217;HTU21D;63800;51.972;5.682;2023-03-23T03:54:23;11.79;99.19
75217;HTU21D;63800;51.972;5.682;2023-03-23T03:56:49;11.83;99.34
75217;HTU21D;63800;51.972;5.682;2023-03-23T03:59:17;11.84;98.44
75217;HTU21D;63800;51.972;5.682;2023-03-23T04:01:42;11.92;98.48
75217;HTU21D;63800;51.972;5.682;2023-03-23T04:04:08;11.90;98.58
75217;HTU21D;63800;51.972;5.682;2023-03-23T04:06:34;11.89;98.05
75217;HTU21D;63800;51.972;5.682;2023-03-23T04:09:02;11.93;97.42
75217;HTU21D;63800;51.972;5.682;2023-03-23T04:11:31;11.99;96.71
75217;HTU21D;63800;51.972;5.682;2023-03-23T04:13:57;11.97;96.62
75217;HTU21D;63800;51.972;5.682;2023-03-23T04:16:22;11.97;96.50
75217;HTU21D;63800;51.972;5.682;2023-03-23T04:18:48;11.98;95.68
75217;HTU21D;63800;51.972;5.682;2023-03-23T04:21:13;11.97;95.97
75217;HTU21D;63800;51.972;5.682;2023-03-23T04:23:39;11.97;94.99
75217;HTU21D;63800;51.972;5.682;2023-03-23T04:26:05;12.03;95.57
75217;HTU21D;63800;51.972;5.682;2023-03-23T04:28:31;12.04;95.51
75217;HTU21D;63800;51.972;5.682;2023-03-23T04:31:00;12.03;94.88
75217;HTU21D;63800;51.972;5.682;2023-03-23T04:33:27;12.02;94.85
75217;HTU21D;63800;51.972;5.682;2023-03-23T04:35:58;12.10;94.78
75217;HTU21D;63800;51.972;5.682;2023-03-23T04:38:26;12.15;94.40
75217;HTU21D;63800;51.972;5.682;2023-03-23T04:40:52;12.04;94.45
75217;HTU21D;63800;51.972;5.682;2023-03-23T04:43:20;12.04;94.28
75217;HTU21D;63800;51.972;5.682;2023-03-23T04:45:56;12.02;94.55
75217;HTU21D;63800;51.972;5.682;2023-03-23T04:48:23;12.13;94.63
75217;HTU21D;63800;51.972;5.682;2023-03-23T04:50:48;11.98;94.22
75217;HTU21D;63800;51.972;5.682;2023-03-23T04:53:16;12.03;93.66
75217;HTU21D;63800;51.972;5.682;2023-03-23T04:55:43;12.04;92.85
75217;HTU21D;63800;51.972;5.682;2023-03-23T04:58:09;12.07;92.59
75217;HTU21D;63800;51.972;5.682;2023-03-23T05:00:35;11.99;92.46
75217;HTU21D;63800;51.972;5.682;2023-03-23T05:03:01;12.00;92.63
75217;HTU21D;63800;51.972;5.682;2023-03-23T05:05:27;12.03;92.21
75217;HTU21D;63800;51.972;5.682;2023-03-23T05:07:54;11.98;92.56
75217;HTU21D;63800;51.972;5.682;2023-03-23T05:10:20;11.99;93.39
75217;HTU21D;63800;51.972;5.682;2023-03-23T05:12:46;11.99;92.50
75217;HTU21D;63800;51.972;5.682;2023-03-23T05:15:13;11.93;92.66
75217;HTU21D;63800;51.972;5.682;2023-03-23T05:17:39;11.98;92.73
75217;HTU21D;63800;51.972;5.682;2023-03-23T05:20:06;12.04;92.56
75217;HTU21D;63800;51.972;5.682;2023-03-23T05:22:37;12.00;92.94
75217;HTU21D;63800;51.972;5.682;2023-03-23T05:25:04;11.91;93.07
75217;HTU21D;63800;51.972;5.682;2023-03-23T05:27:30;11.96;93.16
75217;HTU21D;63800;51.972;5.682;2023-03-23T05:29:58;11.98;93.23
75217;HTU21D;63800;51.972;5.682;2023-03-23T05:32:25;11.93;93.13
75217;HTU21D;63800;51.972;5.682;2023-03-23T05:34:58;11.83;93.53
75217;HTU21D;63800;51.972;5.682;2023-03-23T05:37:25;11.85;93.29
75217;HTU21D;63800;51.972;5.682;2023-03-23T05:39:52;11.89;93.53
75217;HTU21D;63800;51.972;5.682;2023-03-23T05:42:22;11.94;93.77
75217;HTU21D;63800;51.972;5.682;2023-03-23T05:44:49;11.81;94.16
75217;HTU21D;63800;51.972;5.682;2023-03-23T05:47:14;11.79;94.19
75217;HTU21D;63800;51.972;5.682;2023-03-23T05:49:40;11.86;93.94
75217;HTU21D;63800;51.972;5.682;2023-03-23T05:52:05;11.75;93.84
75217;HTU21D;63800;51.972;5.682;2023-03-23T05:54:31;11.83;93.83
75217;HTU21D;63800;51.972;5.682;2023-03-23T05:56:56;11.86;93.82
75217;HTU21D;63800;51.972;5.682;2023-03-23T05:59:22;11.78;94.02
75217;HTU21D;63800;51.972;5.682;2023-03-23T06:01:48;11.78;93.47
75217;HTU21D;63800;51.972;5.682;2023-03-23T06:04:13;11.85;93.59
75217;HTU21D;63800;51.972;5.682;2023-03-23T06:06:39;11.78;93.72
75217;HTU21D;63800;51.972;5.682;2023-03-23T06:09:06;11.81;93.86
75217;HTU21D;63800;51.972;5.682;2023-03-23T06:11:32;11.88;93.63
75217;HTU21D;63800;51.972;5.682;2023-03-23T06:13:57;11.85;94.12
75217;HTU21D;63800;51.972;5.682;2023-03-23T06:16:23;11.98;93.34
75217;HTU21D;63800;51.972;5.682;2023-03-23T06:18:49;11.98;93.47
75217;HTU21D;63800;51.972;5.682;2023-03-23T06:21:14;11.89;93.26
75217;HTU21D;63800;51.972;5.682;2023-03-23T06:23:40;11.91;93.81
75217;HTU21D;63800;51.972;5.682;2023-03-23T06:26:07;11.90;93.50
75217;HTU21D;63800;51.972;5.682;2023-03-23T06:28:34;11.85;93.82
75217;HTU21D;63800;51.972;5.682;2023-03-23T06:31:03;11.91;94.11
75217;HTU21D;63800;51.972;5.682;2023-03-23T06:33:32;11.89;93.92
75217;HTU21D;63800;51.972;5.682;2023-03-23T06:35:59;11.89;93.67
75217;HTU21D;63800;51.972;5.682;2023-03-23T06:38:25;11.88;94.37
75217;HTU21D;63800;51.972;5.682;2023-03-23T06:40:52;11.88;94.47
75217;HTU21D;63800;51.972;5.682;2023-03-23T06:43:17;11.87;94.19
75217;HTU21D;63800;51.972;5.682;2023-03-23T06:45:43;11.90;94.53
75217;HTU21D;63800;51.972;5.682;2023-03-23T06:48:08;11.88;94.69
75217;HTU21D;63800;51.972;5.682;2023-03-23T06:50:34;11.89;94.46
75217;HTU21D;63800;51.972;5.682;2023-03-23T06:52:59;11.93;94.46
75217;HTU21D;63800;51.972;5.682;2023-03-23T06:55:25;11.87;93.93
75217;HTU21D;63800;51.972;5.682;2023-03-23T06:57:50;11.92;93.67
75217;HTU21D;63800;51.972;5.682;2023-03-23T07:00:16;11.99;94.14
75217;HTU21D;63800;51.972;5.682;2023-03-23T07:02:42;11.86;95.03
75217;HTU21D;63800;51.972;5.682;2023-03-23T07:05:09;11.89;94.56
75217;HTU21D;63800;51.972;5.682;2023-03-23T07:07:36;11.87;94.85
75217;HTU21D;63800;51.972;5.682;2023-03-23T07:10:07;11.86;94.01
75217;HTU21D;63800;51.972;5.682;2023-03-23T07:12:34;11.90;94.39
75217;HTU21D;63800;51.972;5.682;2023-03-23T07:15:01;11.91;94.52
75217;HTU21D;63800;51.972;5.682;2023-03-23T07:17:27;11.91;94.20
75217;HTU21D;63800;51.972;5.682;2023-03-23T07:19:53;12.08;93.65
75217;HTU21D;63800;51.972;5.682;2023-03-23T07:22:19;11.92;94.24
75217;HTU21D;63800;51.972;5.682;2023-03-23T07:24:44;12.06;94.42
75217;HTU21D;63800;51.972;5.682;2023-03-23T07:27:10;11.97;94.75
75217;HTU21D;63800;51.972;5.682;2023-03-23T07:29:35;11.93;95.15
75217;HTU21D;63800;51.972;5.682;2023-03-23T07:32:04;11.99;95.43
75217;HTU21D;63800;51.972;5.682;2023-03-23T07:34:30;12.01;95.41
75217;HTU21D;63800;51.972;5.682;2023-03-23T07:36:57;11.81;96.68
75217;HTU21D;63800;51.972;5.682;2023-03-23T07:39:22;11.84;96.21
75217;HTU21D;63800;51.972;5.682;2023-03-23T07:41:49;11.76;95.87
75217;HTU21D;63800;51.972;5.682;2023-03-23T07:44:14;11.74;95.64
75217;HTU21D;63800;51.972;5.682;2023-03-23T07:46:40;11.64;95.20
75217;HTU21D;63800;51.972;5.682;2023-03-23T07:49:07;11.70;95.97
75217;HTU21D;63800;51.972;5.682;2023-03-23T07:51:33;11.48;97.50
75217;HTU21D;63800;51.972;5.682;2023-03-23T07:54:00;11.51;99.52
75217;HTU21D;63800;51.972;5.682;2023-03-23T07:56:27;11.39;101.32
75217;HTU21D;63800;51.972;5.682;2023-03-23T07:58:53;11.26;101.57
75217;HTU21D;63800;51.972;5.682;2023-03-23T08:01:19;11.32;102.92
75217;HTU21D;63800;51.972;5.682;2023-03-23T08:03:44;11.27;104.08
75217;HTU21D;63800;51.972;5.682;2023-03-23T08:06:10;11.27;103.83
75217;HTU21D;63800;51.972;5.682;2023-03-23T08:08:36;11.20;104.87
75217;HTU21D;63800;51.972;5.682;2023-03-23T08:11:03;11.24;105.81
75217;HTU21D;63800;51.972;5.682;2023-03-23T08:13:28;11.12;107.11
75217;HTU21D;63800;51.972;5.682;2023-03-23T08:15:54;11.20;106.72
75217;HTU21D;63800;51.972;5.682;2023-03-23T08:18:20;11.20;107.44
75217;HTU21D;63800;51.972;5.682;2023-03-23T08:20:45;11.05;108.68
75217;HTU21D;63800;51.972;5.682;2023-03-23T08:23:11;11.18;107.78
75217;HTU21D;63800;51.972;5.682;2023-03-23T08:25:37;11.14;107.89
75217;HTU21D;63800;51.972;5.682;2023-03-23T08:28:03;11.05;108.53
75217;HTU21D;63800;51.972;5.682;2023-03-23T08:30:30;11.24;107.06
75217;HTU21D;63800;51.972;5.682;2023-03-23T08:32:58;11.33;106.75
75217;HTU21D;63800;51.972;5.682;2023-03-23T08:35:26;11.37;105.28
75217;HTU21D;63800;51.972;5.682;2023-03-23T08:37:51;11.36;105.93
75217;HTU21D;63800;51.972;5.682;2023-03-23T08:40:19;11.43;105.70
75217;HTU21D;63800;51.972;5.682;2023-03-23T08:42:46;11.30;104.26
75217;HTU21D;63800;51.972;5.682;2023-03-23T08:45:15;11.40;104.19
75217;HTU21D;63800;51.972;5.682;2023-03-23T08:47:42;11.29;102.78
75217;HTU21D;63800;51.972;5.682;2023-03-23T08:50:13;11.48;101.89
75217;HTU21D;63800;51.972;5.682;2023-03-23T08:52:39;11.34;100.61
75217;HTU21D;63800;51.972;5.682;2023-03-23T08:55:05;11.38;100.54
75217;HTU21D;63800;51.972;5.682;2023-03-23T08:57:34;11.43;100.31
75217;HTU21D;63800;51.972;5.682;2023-03-23T09:00:02;11.32;97.48
75217;HTU21D;63800;51.972;5.682;2023-03-23T09:02:38;11.37;99.26
75217;HTU21D;63800;51.972;5.682;2023-03-23T09:05:04;11.46;98.36
75217;HTU21D;63800;51.972;5.682;2023-03-23T09:07:29;11.34;97.92
75217;HTU21D;63800;51.972;5.682;2023-03-23T09:09:55;11.62;97.68
75217;HTU21D;63800;51.972;5.682;2023-03-23T09:12:21;11.69;96.84
75217;HTU21D;63800;51.972;5.682;2023-03-23T09:14:46;11.36;96.12
75217;HTU21D;63800;51.972;5.682;2023-03-23T09:17:12;11.48;96.28
75217;HTU21D;63800;51.972;5.682;2023-03-23T09:19:37;11.49;94.72
75217;HTU21D;63800;51.972;5.682;2023-03-23T09:22:03;11.48;93.75
75217;HTU21D;63800;51.972;5.682;2023-03-23T09:24:29;11.67;94.12
75217;HTU21D;63800;51.972;5.682;2023-03-23T09:26:55;11.78;93.46
75217;HTU21D;63800;51.972;5.682;2023-03-23T09:29:20;12.01;91.77
75217;HTU21D;63800;51.972;5.682;2023-03-23T09:31:46;12.07;90.45
75217;HTU21D;63800;51.972;5.682;2023-03-23T09:34:13;11.92;90.12
75217;HTU21D;63800;51.972;5.682;2023-03-23T09:36:42;11.87;91.22
75217;HTU21D;63800;51.972;5.682;2023-03-23T09:39:08;11.81;91.01
75217;HTU21D;63800;51.972;5.682;2023-03-23T09:45:19;12.04;90.13
75217;HTU21D;63800;51.972;5.682;2023-03-23T09:50:45;12.16;87.33
75217;HTU21D;63800;51.972;5.682;2023-03-23T09:53:22;12.40;87.73
75217;HTU21D;63800;51.972;5.682;2023-03-23T09:55:49;12.14;87.85
75217;HTU21D;63800;51.972;5.682;2023-03-23T09:58:24;12.45;86.91
75217;HTU21D;63800;51.972;5.682;2023-03-23T10:01:13;12.45;85.68
75217;HTU21D;63800;51.972;5.682;2023-03-23T10:03:43;12.55;85.25
75217;HTU21D;63800;51.972;5.682;2023-03-23T10:06:15;12.80;83.89
75217;HTU21D;63800;51.972;5.682;2023-03-23T10:08:53;12.87;81.82
75217;HTU21D;63800;51.972;5.682;2023-03-23T10:11:39;13.09;81.71
75217;HTU21D;63800;51.972;5.682;2023-03-23T10:14:10;13.14;81.31
75217;HTU21D;63800;51.972;5.682;2023-03-23T10:16:40;13.17;80.36
75217;HTU21D;63800;51.972;5.682;2023-03-23T10:19:31;13.01;78.30
75217;HTU21D;63800;51.972;5.682;2023-03-23T10:22:39;13.22;80.30
75217;HTU21D;63800;51.972;5.682;2023-03-23T10:27:47;13.51;76.87
75217;HTU21D;63800;51.972;5.682;2023-03-23T10:33:24;13.88;75.15
75217;HTU21D;63800;51.972;5.682;2023-03-23T10:35:57;14.01;75.83
75217;HTU21D;63800;51.972;5.682;2023-03-23T10:38:49;14.12;73.04
75217;HTU21D;63800;51.972;5.682;2023-03-23T10:41:19;14.73;72.67
75217;HTU21D;63800;51.972;5.682;2023-03-23T10:43:46;14.41;71.90
75217;HTU21D;63800;51.972;5.682;2023-03-23T10:48:53;13.89;73.54
75217;HTU21D;63800;51.972;5.682;2023-03-23T10:51:25;13.85;72.00
75217;HTU21D;63800;51.972;5.682;2023-03-23T10:53:58;13.63;70.69
75217;HTU21D;63800;51.972;5.682;2023-03-23T10:56:29;14.32;69.08
75217;HTU21D;63800;51.972;5.682;2023-03-23T10:58:59;15.09;65.78
75217;HTU21D;63800;51.972;5.682;2023-03-23T11:01:33;14.54;67.61
75217;HTU21D;63800;51.972;5.682;2023-03-23T11:03:59;14.55;65.62
75217;HTU21D;63800;51.972;5.682;2023-03-23T11:06:33;14.68;66.91
75217;HTU21D;63800;51.972;5.682;2023-03-23T11:09:13;15.55;65.16
75217;HTU21D;63800;51.972;5.682;2023-03-23T11:11:51;16.18;63.81
75217;HTU21D;63800;51.972;5.682;2023-03-23T11:14:28;15.36;64.60
75217;HTU21D;63800;51.972;5.682;2023-03-23T11:16:56;15.34;64.36
75217;HTU21D;63800;51.972;5.682;2023-03-23T11:19:26;15.43;65.26
75217;HTU21D;63800;51.972;5.682;2023-03-23T11:21:53;14.71;69.42
75217;HTU21D;63800;51.972;5.682;2023-03-23T11:24:22;13.88;71.71
75217;HTU21D;63800;51.972;5.682;2023-03-23T11:26:49;14.64;70.14
75217;HTU21D;63800;51.972;5.682;2023-03-23T11:29:18;14.35;70.59
75217;HTU21D;63800;51.972;5.682;2023-03-23T11:31:49;14.32;68.64
75217;HTU21D;63800;51.972;5.682;2023-03-23T11:34:33;13.95;70.69
75217;HTU21D;63800;51.972;5.682;2023-03-23T11:37:05;13.94;71.38
75217;HTU21D;63800;51.972;5.682;2023-03-23T11:39:32;13.71;71.40
75217;HTU21D;63800;51.972;5.682;2023-03-23T11:42:00;13.89;71.74
75217;HTU21D;63800;51.972;5.682;2023-03-23T11:44:40;14.34;69.88
75217;HTU21D;63800;51.972;5.682;2023-03-23T11:47:27;14.33;70.68
75217;HTU21D;63800;51.972;5.682;2023-03-23T11:50:14;14.17;70.84
75217;HTU21D;63800;51.972;5.682;2023-03-23T11:52:52;13.77;71.19
75217;HTU21D;63800;51.972;5.682;2023-03-23T11:55:25;14.07;68.93
75217;HTU21D;63800;51.972;5.682;2023-03-23T11:57:52;14.55;68.41
75217;HTU21D;63800;51.972;5.682;2023-03-23T12:00:21;14.72;67.72
75217;HTU21D;63800;51.972;5.682;2023-03-23T12:06:10;14.58;65.32
75217;HTU21D;63800;51.972;5.682;2023-03-23T12:08:59;15.01;65.08
75217;HTU21D;63800;51.972;5.682;2023-03-23T12:14:10;14.63;66.04
75217;HTU21D;63800;51.972;5.682;2023-03-23T12:36:51;12.69;87.29
75217;HTU21D;63800;51.972;5.682;2023-03-23T12:39:46;12.18;93.39
75217;HTU21D;63800;51.972;5.682;2023-03-23T12:42:55;12.35;93.18
75217;HTU21D;63800;51.972;5.682;2023-03-23T12:47:49;11.92;92.88
75217;HTU21D;63800;51.972;5.682;2023-03-23T12:50:26;12.29;91.11
75217;HTU21D;63800;51.972;5.682;2023-03-23T12:55:47;12.32;93.90
75217;HTU21D;63800;51.972;5.682;2023-03-23T12:58:25;12.43;93.89
75217;HTU21D;63800;51.972;5.682;2023-03-23T13:01:06;12.29;96.49
75217;HTU21D;63800;51.972;5.682;2023-03-23T13:06:40;12.53;90.26
75217;HTU21D;63800;51.972;5.682;2023-03-23T13:12:04;12.46;87.52
75217;HTU21D;63800;51.972;5.682;2023-03-23T13:14:53;12.64;85.48
75217;HTU21D;63800;51.972;5.682;2023-03-23T13:23:20;15.15;73.22
75217;HTU21D;63800;51.972;5.682;2023-03-23T13:25:56;15.42;70.55
75217;HTU21D;63800;51.972;5.682;2023-03-23T13:28:25;16.26;66.99
75217;HTU21D;63800;51.972;5.682;2023-03-23T13:31:11;15.81;69.60
75217;HTU21D;63800;51.972;5.682;2023-03-23T13:33:37;15.84;67.88
75217;HTU21D;63800;51.972;5.682;2023-03-23T13:36:13;16.02;67.12
75217;HTU21D;63800;51.972;5.682;2023-03-23T13:38:49;15.48;67.86
75217;HTU21D;63800;51.972;5.682;2023-03-23T13:41:17;14.89;70.84
75217;HTU21D;63800;51.972;5.682;2023-03-23T13:43:43;14.49;72.10
75217;HTU21D;63800;51.972;5.682;2023-03-23T13:49:03;14.18;75.63
75217;HTU21D;63800;51.972;5.682;2023-03-23T13:51:36;14.09;76.98
75217;HTU21D;63800;51.972;5.682;2023-03-23T13:54:39;14.04;76.68
75217;HTU21D;63800;51.972;5.682;2023-03-23T13:57:34;14.00;77.95
75217;HTU21D;63800;51.972;5.682;2023-03-23T14:02:51;13.64;84.68
75217;HTU21D;63800;51.972;5.682;2023-03-23T14:08:05;13.61;83.95
75217;HTU21D;63800;51.972;5.682;2023-03-23T14:10:42;13.54;82.62
75217;HTU21D;63800;51.972;5.682;2023-03-23T14:13:19;13.45;84.39
75217;HTU21D;63800;51.972;5.682;2023-03-23T14:15:56;13.23;88.10
75217;HTU21D;63800;51.972;5.682;2023-03-23T14:18:25;13.26;87.38
75217;HTU21D;63800;51.972;5.682;2023-03-23T14:20:52;13.17;87.77
75217;HTU21D;63800;51.972;5.682;2023-03-23T14:23:19;13.26;85.93
75217;HTU21D;63800;51.972;5.682;2023-03-23T14:25:45;13.55;84.72
75217;HTU21D;63800;51.972;5.682;2023-03-23T14:28:20;13.47;83.20
75217;HTU21D;63800;51.972;5.682;2023-03-23T14:30:48;13.51;81.97
75217;HTU21D;63800;51.972;5.682;2023-03-23T14:33:18;13.96;80.91
75217;HTU21D;63800;51.972;5.682;2023-03-23T14:35:45;13.80;78.92
75217;HTU21D;63800;51.972;5.682;2023-03-23T14:38:20;14.04;77.11
75217;HTU21D;63800;51.972;5.682;2023-03-23T14:40:47;14.26;76.02
75217;HTU21D;63800;51.972;5.682;2023-03-23T14:43:16;14.35;74.79
75217;HTU21D;63800;51.972;5.682;2023-03-23T14:45:43;14.99;75.03
75217;HTU21D;63800;51.972;5.682;2023-03-23T14:48:13;14.87;71.04
75217;HTU21D;63800;51.972;5.682;2023-03-23T14:50:41;14.98;72.23
75217;HTU21D;63800;51.972;5.682;2023-03-23T14:53:15;14.85;71.04
75217;HTU21D;63800;51.972;5.682;2023-03-23T14:55:43;15.07;71.68
75217;HTU21D;63800;51.972;5.682;2023-03-23T14:58:13;15.15;71.80
75217;HTU21D;63800;51.972;5.682;2023-03-23T15:00:42;14.64;71.79
75217;HTU21D;63800;51.972;5.682;2023-03-23T15:03:13;14.80;70.55
75217;HTU21D;63800;51.972;5.682;2023-03-23T15:05:53;14.80;70.64
75217;HTU21D;63800;51.972;5.682;2023-03-23T15:08:24;14.64;69.84
75217;HTU21D;63800;51.972;5.682;2023-03-23T15:11:10;14.78;70.87
75217;HTU21D;63800;51.972;5.682;2023-03-23T15:13:37;14.86;70.03
75217;HTU21D;63800;51.972;5.682;2023-03-23T15:16:23;14.83;69.20
75217;HTU21D;63800;51.972;5.682;2023-03-23T15:18:58;15.02;69.80
75217;HTU21D;63800;51.972;5.682;2023-03-23T15:21:29;14.99;68.48
75217;HTU21D;63800;51.972;5.682;2023-03-23T15:23:55;14.87;68.69
75217;HTU21D;63800;51.972;5.682;2023-03-23T15:26:28;15.02;68.35
75217;HTU21D;63800;51.972;5.682;2023-03-23T15:29:22;14.81;67.78
75217;HTU21D;63800;51.972;5.682;2023-03-23T15:31:53;14.89;68.93
75217;HTU21D;63800;51.972;5.682;2023-03-23T15:34:30;14.98;68.84
75217;HTU21D;63800;51.972;5.682;2023-03-23T15:37:05;14.75;69.03
75217;HTU21D;63800;51.972;5.682;2023-03-23T15:39:32;14.88;69.54
75217;HTU21D;63800;51.972;5.682;2023-03-23T15:41:59;14.74;69.22
75217;HTU21D;63800;51.972;5.682;2023-03-23T15:44:28;14.75;69.35
75217;HTU21D;63800;51.972;5.682;2023-03-23T15:47:04;14.54;69.66
75217;HTU21D;63800;51.972;5.682;2023-03-23T15:49:35;14.80;69.61
75217;HTU21D;63800;51.972;5.682;2023-03-23T15:52:01;14.60;70.48
75217;HTU21D;63800;51.972;5.682;2023-03-23T15:54:30;14.71;71.01
75217;HTU21D;63800;51.972;5.682;2023-03-23T15:56:56;14.37;71.67
75217;HTU21D;63800;51.972;5.682;2023-03-23T15:59:22;14.53;72.12
75217;HTU21D;63800;51.972;5.682;2023-03-23T16:01:47;14.62;71.83
75217;HTU21D;63800;51.972;5.682;2023-03-23T16:04:16;14.44;72.74
75217;HTU21D;63800;51.972;5.682;2023-03-23T16:06:43;14.70;72.86
75217;HTU21D;63800;51.972;5.682;2023-03-23T16:09:18;14.64;72.71
75217;HTU21D;63800;51.972;5.682;2023-03-23T16:11:43;14.75;72.99
75217;HTU21D;63800;51.972;5.682;2023-03-23T16:14:09;14.73;72.82
75217;HTU21D;63800;51.972;5.682;2023-03-23T16:16:39;14.55;72.51
75217;HTU21D;63800;51.972;5.682;2023-03-23T16:19:05;14.44;71.47
75217;HTU21D;63800;51.972;5.682;2023-03-23T16:21:31;14.43;70.90
75217;HTU21D;63800;51.972;5.682;2023-03-23T16:23:57;14.27;71.26
75217;HTU21D;63800;51.972;5.682;2023-03-23T16:26:23;14.28;71.81
75217;HTU21D;63800;51.972;5.682;2023-03-23T16:28:48;14.23;70.97
75217;HTU21D;63800;51.972;5.682;2023-03-23T16:31:14;14.41;71.47
75217;HTU21D;63800;51.972;5.682;2023-03-23T16:33:40;14.29;71.72
75217;HTU21D;63800;51.972;5.682;2023-03-23T16:36:06;14.28;71.49
75217;HTU21D;63800;51.972;5.682;2023-03-23T16:38:32;14.23;72.06
75217;HTU21D;63800;51.972;5.682;2023-03-23T16:40:57;14.27;72.25
75217;HTU21D;63800;51.972;5.682;2023-03-23T16:43:23;14.15;72.83
75217;HTU21D;63800;51.972;5.682;2023-03-23T16:45:48;14.15;72.71
75217;HTU21D;63800;51.972;5.682;2023-03-23T16:48:15;14.08;72.13
75217;HTU21D;63800;51.972;5.682;2023-03-23T16:50:42;14.10;71.97
75217;HTU21D;63800;51.972;5.682;2023-03-23T16:53:08;14.13;71.76
75217;HTU21D;63800;51.972;5.682;2023-03-23T16:55:34;14.13;71.67
75217;HTU21D;63800;51.972;5.682;2023-03-23T16:58:00;14.03;71.68
75217;HTU21D;63800;51.972;5.682;2023-03-23T17:00:26;13.92;73.04
75217;HTU21D;63800;51.972;5.682;2023-03-23T17:02:53;13.96;73.11
75217;HTU21D;63800;51.972;5.682;2023-03-23T17:05:23;13.90;73.41